Observation data for Amherst on 12/08/2019      Previous  Date       Current Mesonet Observations  Soil Data  Daily Summary Page  Observations in Plain Language
KAMH 080600Z 24011KT 10/02 A30 RMK A01 T00950024  RH  062%=      5-min Rain = 0
KAMH 080605Z 24012KT 10/02 A30 RMK A01 T00960024  RH  062%=      5-min Rain = 0
KAMH 080610Z 23012KT 10/02 A30 RMK A01 T00960024  RH  062%=      5-min Rain = 0
KAMH 080615Z 23013G18KT 10/02 A2999 RMK A01 T00960024  RH  062%=      5-min Rain = 0
KAMH 080620Z 23014G19KT 10/03 A2999 RMK A01 T00980025  RH  061%=      5-min Rain = 0
KAMH 080625Z 24013KT 10/02 A30 RMK A01 T00960024  RH  062%=      5-min Rain = 0
KAMH 080630Z 24013G19KT 10/03 A2999 RMK A01 T00950025  RH  063%=      5-min Rain = 0
KAMH 080635Z 24013G18KT 09/03 A2999 RMK A01 T00940025  RH  063%=      5-min Rain = 0
KAMH 080640Z 24013G18KT 09/03 A2999 RMK A01 T00940025  RH  063%=      5-min Rain = 0
KAMH 080645Z 23012KT 09/03 A2998 RMK A01 T00930025  RH  063%=      5-min Rain = 0
KAMH 080650Z 23012G17KT 09/03 A2998 RMK A01 T00930025  RH  063%=      5-min Rain = 0
KAMH 080655Z 23012G18KT 09/03 A2998 RMK A01 T00920025  RH  064%=      5-min Rain = 0
KAMH 080700Z 24014G19KT 09/03 A2998 RMK A01 T00940026  RH  064%=      5-min Rain = 0
KAMH 080705Z 24013G19KT 09/03 A2998 RMK A01 T00940025  RH  063%=      5-min Rain = 0
KAMH 080710Z 24012G17KT 09/03 A2997 RMK A01 T00940025  RH  063%=      5-min Rain = 0
KAMH 080715Z 24012G18KT 09/03 A2997 RMK A01 T00940026  RH  063%=      5-min Rain = 0
KAMH 080720Z 24012KT 09/03 A2997 RMK A01 T00940025  RH  063%=      5-min Rain = 0
KAMH 080725Z 24012KT 09/03 A2997 RMK A01 T00920025  RH  064%=      5-min Rain = 0
KAMH 080730Z 24012KT 09/03 A2998 RMK A01 T00900025  RH  064%=      5-min Rain = 0
KAMH 080735Z 24010KT 09/03 A2997 RMK A01 T00890025  RH  065%=      5-min Rain = 0
KAMH 080740Z 25010KT 09/02 A2997 RMK A01 T00870024  RH  066%=      5-min Rain = 0
KAMH 080745Z 25009KT 08/02 A2997 RMK A01 T00820023  RH  068%=      5-min Rain = 0
KAMH 080750Z 25010KT 08/02 A2998 RMK A01 T00810024  RH  068%=      5-min Rain = 0
KAMH 080755Z 25010KT 08/02 A2998 RMK A01 T00790023  RH  069%=      5-min Rain = 0
KAMH 080800Z 25013KT 08/03 A2998 RMK A01 T00820025  RH  068%=      5-min Rain = 0
KAMH 080805Z 24014G19KT 09/03 A2998 RMK A01 T00870026  RH  066%=      5-min Rain = 0
KAMH 080810Z 24014KT 09/03 A2998 RMK A01 T00900026  RH  066%=      5-min Rain = 0
KAMH 080815Z 25013G19KT 09/03 A2998 RMK A01 T00890026  RH  066%=      5-min Rain = 0
KAMH 080820Z 24012KT 09/03 A2998 RMK A01 T00870026  RH  066%=      5-min Rain = 0
KAMH 080825Z 24012KT 09/03 A2998 RMK A01 T00850025  RH  067%=      5-min Rain = 0
KAMH 080830Z 25011G16KT 08/03 A2998 RMK A01 T00820025  RH  068%=      5-min Rain = 0
KAMH 080835Z 25010KT 08/03 A2998 RMK A01 T00800026  RH  069%=      5-min Rain = 0
KAMH 080840Z 25010KT 08/03 A2997 RMK A01 T00830027  RH  069%=      5-min Rain = 0
KAMH 080845Z 25012KT 09/03 A2997 RMK A01 T00870029  RH  068%=      5-min Rain = 0
KAMH 080850Z 25013KT 09/03 A2997 RMK A01 T00910030  RH  067%=      5-min Rain = 0
KAMH 080855Z 25014KT 10/03 A2997 RMK A01 T00970031  RH  065%=      5-min Rain = 0
KAMH 080900Z 25014KT 10/03 A2997 RMK A01 T01000031  RH  063%=      5-min Rain = 0
KAMH 080905Z 25015KT 10/03 A2997 RMK A01 T01000031  RH  063%=      5-min Rain = 0
KAMH 080910Z 25014KT 10/03 A2997 RMK A01 T00990030  RH  063%=      5-min Rain = 0
KAMH 080915Z 25014KT 10/03 A2997 RMK A01 T00970030  RH  064%=      5-min Rain = 0
KAMH 080920Z 25013G18KT 10/03 A2997 RMK A01 T00970030  RH  064%=      5-min Rain = 0
KAMH 080925Z 25013KT 10/03 A2997 RMK A01 T00960029  RH  064%=      5-min Rain = 0
KAMH 080930Z 25014KT 10/03 A2997 RMK A01 T00960030  RH  064%=      5-min Rain = 0
KAMH 080935Z 25014KT 10/03 A2997 RMK A01 T00970030  RH  064%=      5-min Rain = 0
KAMH 080940Z 26013KT 10/03 A2997 RMK A01 T00980030  RH  064%=      5-min Rain = 0
KAMH 080945Z 25013KT 10/03 A2996 RMK A01 T00980030  RH  063%=      5-min Rain = 0
KAMH 080950Z 25012KT 10/03 A2996 RMK A01 T00980030  RH  063%=      5-min Rain = 0
KAMH 080955Z 25013KT 10/03 A2996 RMK A01 T00980030  RH  064%=      5-min Rain = 0
KAMH 081000Z 25013KT 10/03 A2996 RMK A01 T00990030  RH  063%=      5-min Rain = 0
KAMH 081005Z 25013KT 10/03 A2995 RMK A01 T01010030  RH  062%=      5-min Rain = 0
KAMH 081010Z 25013KT 10/03 A2995 RMK A01 T01020030  RH  062%=      5-min Rain = 0
KAMH 081015Z 25011KT 10/03 A2994 RMK A01 T01020030  RH  062%=      5-min Rain = 0
KAMH 081020Z 25012KT 10/03 A2994 RMK A01 T01010030  RH  062%=      5-min Rain = 0
KAMH 081025Z 25012KT 10/03 A2994 RMK A01 T01010030  RH  062%=      5-min Rain = 0
KAMH 081030Z 25012KT 10/03 A2993 RMK A01 T01020030  RH  062%=      5-min Rain = 0
KAMH 081035Z 25010KT 10/03 A2993 RMK A01 T01020030  RH  062%=      5-min Rain = 0
KAMH 081040Z 25011KT 10/03 A2993 RMK A01 T01020030  RH  062%=      5-min Rain = 0
KAMH 081045Z 24011KT 10/03 A2993 RMK A01 T01020030  RH  062%=      5-min Rain = 0
KAMH 081050Z 25012KT 10/03 A2993 RMK A01 T01010030  RH  062%=      5-min Rain = 0
KAMH 081055Z 25012KT 10/03 A2993 RMK A01 T00990030  RH  063%=      5-min Rain = 0
KAMH 081100Z 25013KT 10/03 A2993 RMK A01 T00990030  RH  063%=      5-min Rain = 0
KAMH 081105Z 25012G17KT 10/03 A2993 RMK A01 T00980029  RH  063%=      5-min Rain = 0
KAMH 081110Z 26013KT 10/03 A2993 RMK A01 T00970029  RH  064%=      5-min Rain = 0
KAMH 081115Z 26013KT 10/03 A2994 RMK A01 T00970029  RH  064%=      5-min Rain = 0
KAMH 081120Z 26012KT 10/03 A2994 RMK A01 T00960030  RH  064%=      5-min Rain = 0
KAMH 081125Z 26012KT 10/03 A2994 RMK A01 T00950030  RH  065%=      5-min Rain = 0
KAMH 081130Z 26012KT 10/03 A2994 RMK A01 T00960031  RH  065%=      5-min Rain = 0
KAMH 081135Z 26013KT 10/03 A2993 RMK A01 T01000033  RH  064%=      5-min Rain = 0
KAMH 081140Z 26013KT 10/03 A2993 RMK A01 T01040033  RH  063%=      5-min Rain = 0
KAMH 081145Z 26015KT 11/03 A2993 RMK A01 T01070034  RH  062%=      5-min Rain = 0
KAMH 081150Z 26015KT 11/03 A2993 RMK A01 T01090034  RH  061%=      5-min Rain = 0
KAMH 081155Z 26015KT 11/04 A2992 RMK A01 T01120035  RH  060%=      5-min Rain = 0
KAMH 081200Z 26015KT 12/04 A2992 RMK A01 T01160036  RH  059%=      5-min Rain = 0
KAMH 081205Z 27016KT 12/04 A2992 RMK A01 T01180036  RH  058%=      5-min Rain = 0
KAMH 081210Z 27016KT 12/04 A2993 RMK A01 T01200036  RH  058%=      5-min Rain = 0
KAMH 081215Z 27016KT 12/04 A2993 RMK A01 T01210036  RH  057%=      5-min Rain = 0
KAMH 081220Z 26017G22KT 12/04 A2993 RMK A01 T01240036  RH  056%=      5-min Rain = 0
KAMH 081225Z 26016G22KT 13/04 A2992 RMK A01 T01280036  RH  054%=      5-min Rain = 0
KAMH 081230Z 26018KT 13/04 A2992 RMK A01 T01300036  RH  054%=      5-min Rain = 0
KAMH 081235Z 26017G22KT 13/04 A2993 RMK A01 T01290035  RH  054%=      5-min Rain = 0
KAMH 081240Z 26016KT 13/04 A2993 RMK A01 T01260035  RH  055%=      5-min Rain = 0
KAMH 081245Z 26017KT 13/04 A2993 RMK A01 T01260035  RH  055%=      5-min Rain = 0
KAMH 081250Z 26016G22KT 13/04 A2992 RMK A01 T01270035  RH  055%=      5-min Rain = 0
KAMH 081255Z 26016KT 13/04 A2992 RMK A01 T01260035  RH  055%=      5-min Rain = 0
KAMH 081300Z 26015G20KT 13/04 A2992 RMK A01 T01250035  RH  055%=      5-min Rain = 0
KAMH 081305Z 26015KT 13/04 A2992 RMK A01 T01250035  RH  055%=      5-min Rain = 0
KAMH 081310Z 26016G21KT 13/04 A2992 RMK A01 T01280036  RH  054%=      5-min Rain = 0
KAMH 081315Z 26017G23KT 13/04 A2992 RMK A01 T01330035  RH  052%=      5-min Rain = 0
KAMH 081320Z 26015KT 13/03 A2992 RMK A01 T01330034  RH  052%=      5-min Rain = 0
KAMH 081325Z 26015G20KT 13/04 A2992 RMK A01 T01340035  RH  052%=      5-min Rain = 0
KAMH 081330Z 26016KT 14/03 A2992 RMK A01 T01350034  RH  051%=      5-min Rain = 0
KAMH 081335Z 26016KT 14/03 A2992 RMK A01 T01360034  RH  051%=      5-min Rain = 0
KAMH 081340Z 26018KT 14/03 A2992 RMK A01 T01360034  RH  051%=      5-min Rain = 0
KAMH 081345Z 27017G22KT 14/03 A2991 RMK A01 T01360033  RH  051%=      5-min Rain = 0
KAMH 081350Z 27017G22KT 13/03 A2991 RMK A01 T01340033  RH  051%=      5-min Rain = 0
KAMH 081355Z 27018KT 13/03 A2992 RMK A01 T01330033  RH  051%=      5-min Rain = 0
KAMH 081400Z 27017G24KT 13/03 A2992 RMK A01 T01320032  RH  052%=      5-min Rain = 0
KAMH 081405Z 27018G23KT 13/03 A2992 RMK A01 T01310033  RH  052%=      5-min Rain = 0
KAMH 081410Z 27017G23KT 13/03 A2992 RMK A01 T01290033  RH  053%=      5-min Rain = 0
KAMH 081415Z 27017G23KT 13/03 A2992 RMK A01 T01270033  RH  053%=      5-min Rain = 0
KAMH 081420Z 27017G22KT 13/03 A2992 RMK A01 T01280033  RH  053%=      5-min Rain = 0
KAMH 081425Z 26016G21KT 13/03 A2992 RMK A01 T01280033  RH  053%=      5-min Rain = 0
KAMH 081430Z 27016G22KT 13/03 A2992 RMK A01 T01290034  RH  053%=      5-min Rain = 0
KAMH 081435Z 27017G23KT 13/03 A2991 RMK A01 T01290034  RH  053%=      5-min Rain = 0
KAMH 081440Z 27017G22KT 13/03 A2992 RMK A01 T01300034  RH  053%=      5-min Rain = 0
KAMH 081445Z 26017G22KT 13/03 A2992 RMK A01 T01290034  RH  054%=      5-min Rain = 0
KAMH 081450Z 26016KT 13/04 A2992 RMK A01 T01290035  RH  054%=      5-min Rain = 0
KAMH 081455Z 26016KT 13/04 A2992 RMK A01 T01290035  RH  054%=      5-min Rain = 0
KAMH 081500Z 26017KT 13/04 A2992 RMK A01 T01300035  RH  053%=      5-min Rain = 0
KAMH 081505Z 26017KT 13/04 A2992 RMK A01 T01300035  RH  053%=      5-min Rain = 0
KAMH 081510Z 26016KT 13/04 A2992 RMK A01 T01290035  RH  054%=      5-min Rain = 0
KAMH 081515Z 26015G20KT 13/04 A2992 RMK A01 T01290035  RH  054%=      5-min Rain = 0
KAMH 081520Z 26016KT 13/04 A2992 RMK A01 T01310035  RH  053%=      5-min Rain = 0
KAMH 081525Z 26015KT 13/04 A2993 RMK A01 T01320036  RH  053%=      5-min Rain = 0
KAMH 081530Z 26014G19KT 13/04 A2992 RMK A01 T01320036  RH  053%=      5-min Rain = 0
KAMH 081535Z 25013KT 13/04 A2992 RMK A01 T01330037  RH  053%=      5-min Rain = 0
KAMH 081540Z 26016KT 14/04 A2992 RMK A01 T01350037  RH  052%=      5-min Rain = 0
KAMH 081545Z 26015G20KT 14/04 A2991 RMK A01 T01360037  RH  052%=      5-min Rain = 0
KAMH 081550Z 26015KT 14/04 A2991 RMK A01 T01400039  RH  051%=      5-min Rain = 0
KAMH 081555Z 26018G24KT 14/04 A2991 RMK A01 T01440038  RH  050%=      5-min Rain = 0
KAMH 081600Z 25018G23KT 15/04 A2992 RMK A01 T01480038  RH  049%=      5-min Rain = 0
KAMH 081605Z 26018G25KT 15/04 A2992 RMK A01 T01510038  RH  048%=      5-min Rain = 0
KAMH 081610Z 25018KT 15/04 A2992 RMK A01 T01530038  RH  047%=      5-min Rain = 0
KAMH 081615Z 25016G24KT 15/04 A2991 RMK A01 T01530037  RH  047%=      5-min Rain = 0
KAMH 081620Z 25016G21KT 15/04 A2991 RMK A01 T01540039  RH  047%=      5-min Rain = 0
KAMH 081625Z 25017G23KT 15/04 A2991 RMK A01 T01520037  RH  047%=      5-min Rain = 0
KAMH 081630Z 25019G27KT 15/04 A2991 RMK A01 T01530037  RH  047%=      5-min Rain = 0
KAMH 081635Z 26018G25KT 15/04 A2991 RMK A01 T01540037  RH  046%=      5-min Rain = 0
KAMH 081640Z 25019G26KT 16/04 A2991 RMK A01 T01550037  RH  046%=      5-min Rain = 0
KAMH 081645Z 25018G24KT 16/04 A299 RMK A01 T01570038  RH  046%=      5-min Rain = 0
KAMH 081650Z 25019G26KT 16/04 A299 RMK A01 T01580038  RH  045%=      5-min Rain = 0
KAMH 081655Z 25020G25KT 16/04 A299 RMK A01 T01610039  RH  045%=      5-min Rain = 0
KAMH 081700Z 25019G24KT 16/04 A299 RMK A01 T01640039  RH  044%=      5-min Rain = 0
KAMH 081705Z 26021G27KT 17/04 A299 RMK A01 T01660039  RH  044%=      5-min Rain = 0
KAMH 081710Z 26023G28KT 17/04 A299 RMK A01 T01660036  RH  043%=      5-min Rain = 0
KAMH 081715Z 26020G27KT 17/04 A299 RMK A01 T01660037  RH  043%=      5-min Rain = 0
KAMH 081720Z 26021G26KT 17/04 A2989 RMK A01 T01670037  RH  042%=      5-min Rain = 0
KAMH 081725Z 26020G26KT 17/04 A2989 RMK A01 T01710037  RH  041%=      5-min Rain = 0
KAMH 081730Z 26022G29KT 18/04 A2989 RMK A01 T01750036  RH  040%=      5-min Rain = 0
KAMH 081735Z 26023G29KT 18/03 A2989 RMK A01 T01780034  RH  039%=      5-min Rain = 0
KAMH 081740Z 26024G30KT 18/03 A2988 RMK A01 T01770033  RH  039%=      5-min Rain = 0
KAMH 081745Z 26023G28KT 18/03 A2987 RMK A01 T01810034  RH  038%=      5-min Rain = 0
KAMH 081750Z 26022G28KT 18/03 A2987 RMK A01 T01830033  RH  037%=      5-min Rain = 0
KAMH 081755Z 26023G30KT 18/03 A2987 RMK A01 T01830031  RH  037%=      5-min Rain = 0
KAMH 081800Z 26025G34KT 18/03 A2987 RMK A01 T01840030  RH  036%=      5-min Rain = 0
KAMH 081805Z 26025G32KT 19/03 A2987 RMK A01 T01850030  RH  036%=      5-min Rain = 0
KAMH 081810Z 26025G30KT 19/03 A2986 RMK A01 T01870032  RH  036%=      5-min Rain = 0
KAMH 081815Z 26022KT 19/03 A2986 RMK A01 T01880033  RH  036%=      5-min Rain = 0
KAMH 081820Z 25022G29KT 19/03 A2986 RMK A01 T01890033  RH  036%=      5-min Rain = 0
KAMH 081825Z 26021G29KT 19/03 A2986 RMK A01 T01880034  RH  037%=      5-min Rain = 0
KAMH 081830Z 25022G28KT 19/03 A2986 RMK A01 T01890034  RH  036%=      5-min Rain = 0
KAMH 081835Z 25026G32KT 19/03 A2985 RMK A01 T01870032  RH  036%=      5-min Rain = 0
KAMH 081840Z 26024G29KT 19/03 A2985 RMK A01 T01880034  RH  037%=      5-min Rain = 0
KAMH 081845Z 26024G32KT 19/04 A2985 RMK A01 T01890035  RH  037%=      5-min Rain = 0
KAMH 081850Z 26024G31KT 19/04 A2985 RMK A01 T01900035  RH  036%=      5-min Rain = 0
KAMH 081855Z 26022G30KT 19/04 A2985 RMK A01 T01910035  RH  036%=      5-min Rain = 0
KAMH 081900Z 25019G28KT 20/04 A2985 RMK A01 T01960036  RH  035%=      5-min Rain = 0
KAMH 081905Z 26024G33KT 20/03 A2985 RMK A01 T01960030  RH  034%=      5-min Rain = 0
KAMH 081910Z 26024G31KT 20/03 A2984 RMK A01 T01960032  RH  034%=      5-min Rain = 0
KAMH 081915Z 26026G31KT 20/03 A2984 RMK A01 T01950032  RH  035%=      5-min Rain = 0
KAMH 081920Z 26025G33KT 20/03 A2983 RMK A01 T01970034  RH  035%=      5-min Rain = 0
KAMH 081925Z 26026G31KT 20/03 A2983 RMK A01 T01990034  RH  034%=      5-min Rain = 0
KAMH 081930Z 26027G34KT 20/03 A2983 RMK A01 T01990034  RH  034%=      5-min Rain = 0
KAMH 081935Z 26027G33KT 20/04 A2983 RMK A01 T02010036  RH  034%=      5-min Rain = 0
KAMH 081940Z 26024G31KT 20/04 A2982 RMK A01 T02010037  RH  034%=      5-min Rain = 0
KAMH 081945Z 26024G32KT 20/04 A2982 RMK A01 T02020038  RH  034%=      5-min Rain = 0
KAMH 081950Z 26028G35KT 20/04 A2982 RMK A01 T02020035  RH  034%=      5-min Rain = 0
KAMH 081955Z 27025G32KT 20/04 A2982 RMK A01 T02040036  RH  034%=      5-min Rain = 0
KAMH 082000Z 27027G34KT 20/04 A2982 RMK A01 T02040037  RH  034%=      5-min Rain = 0
KAMH 082005Z 26029G37KT 20/04 A2982 RMK A01 T02020038  RH  034%=      5-min Rain = 0
KAMH 082010Z 27029G35KT 20/04 A2982 RMK A01 T01990038  RH  035%=      5-min Rain = 0
KAMH 082015Z 26030G38KT 20/04 A2982 RMK A01 T01980038  RH  036%=      5-min Rain = 0
KAMH 082020Z 26029G35KT 20/04 A2982 RMK A01 T02000039  RH  035%=      5-min Rain = 0
KAMH 082025Z 26028G38KT 20/04 A2982 RMK A01 T02000039  RH  035%=      5-min Rain = 0
KAMH 082030Z 26027G36KT 20/04 A2982 RMK A01 T02020040  RH  035%=      5-min Rain = 0
KAMH 082035Z 26026G39KT 20/04 A2982 RMK A01 T02030041  RH  035%=      5-min Rain = 0
KAMH 082040Z 26029G37KT 20/04 A2981 RMK A01 T02000037  RH  035%=      5-min Rain = 0
KAMH 082045Z 26027G35KT 20/04 A2981 RMK A01 T01990037  RH  035%=      5-min Rain = 0
KAMH 082050Z 26026G33KT 20/04 A2981 RMK A01 T01980038  RH  035%=      5-min Rain = 0
KAMH 082055Z 26026G33KT 20/04 A2981 RMK A01 T01980040  RH  036%=      5-min Rain = 0
KAMH 082100Z 26026G32KT 20/04 A2981 RMK A01 T01980039  RH  036%=      5-min Rain = 0
KAMH 082105Z 26021G30KT 20/04 A2982 RMK A01 T01990040  RH  036%=      5-min Rain = 0
KAMH 082110Z 26026G32KT 20/04 A2981 RMK A01 T01970041  RH  036%=      5-min Rain = 0
KAMH 082115Z 26024G33KT 20/04 A2981 RMK A01 T01950041  RH  037%=      5-min Rain = 0
KAMH 082120Z 25024G32KT 19/04 A2981 RMK A01 T01940041  RH  037%=      5-min Rain = 0
KAMH 082125Z 25023G28KT 19/04 A298 RMK A01 T01930041  RH  037%=      5-min Rain = 0
KAMH 082130Z 25023G31KT 19/04 A298 RMK A01 T01920041  RH  038%=      5-min Rain = 0
KAMH 082135Z 26022KT 19/04 A298 RMK A01 T01920042  RH  038%=      5-min Rain = 0
KAMH 082140Z 26021G26KT 19/04 A2981 RMK A01 T01920043  RH  038%=      5-min Rain = 0
KAMH 082145Z 26021G30KT 19/04 A298 RMK A01 T01930044  RH  038%=      5-min Rain = 0
KAMH 082150Z 26024G31KT 19/04 A298 RMK A01 T01940043  RH  038%=      5-min Rain = 0
KAMH 082155Z 26022G28KT 19/04 A298 RMK A01 T01940042  RH  038%=      5-min Rain = 0
KAMH 082200Z 26023G29KT 19/04 A2981 RMK A01 T01930043  RH  038%=      5-min Rain = 0
KAMH 082205Z 26021G28KT 19/04 A2981 RMK A01 T01910044  RH  039%=      5-min Rain = 0
KAMH 082210Z 26022KT 19/05 A2981 RMK A01 T01890045  RH  039%=      5-min Rain = 0
KAMH 082215Z 26022G28KT 19/05 A298 RMK A01 T01890045  RH  039%=      5-min Rain = 0
KAMH 082220Z 26022G28KT 19/04 A2981 RMK A01 T01890044  RH  039%=      5-min Rain = 0
KAMH 082225Z 26025G35KT 19/04 A2981 RMK A01 T01890042  RH  039%=      5-min Rain = 0
KAMH 082230Z 26023G31KT 19/04 A2981 RMK A01 T01880041  RH  039%=      5-min Rain = 0
KAMH 082235Z 26023G29KT 19/04 A2981 RMK A01 T01870041  RH  039%=      5-min Rain = 0
KAMH 082240Z 25022G28KT 19/04 A2981 RMK A01 T01850041  RH  039%=      5-min Rain = 0
KAMH 082245Z 26021G29KT 18/04 A2981 RMK A01 T01840041  RH  039%=      5-min Rain = 0
KAMH 082250Z 26020G27KT 18/04 A2982 RMK A01 T01830041  RH  040%=      5-min Rain = 0
KAMH 082255Z 26020G26KT 18/04 A2982 RMK A01 T01820041  RH  040%=      5-min Rain = 0
KAMH 082300Z 26020G29KT 18/04 A2982 RMK A01 T01810041  RH  040%=      5-min Rain = 0
KAMH 082305Z 25019G26KT 18/04 A2982 RMK A01 T01790041  RH  041%=      5-min Rain = 0
KAMH 082310Z 25017G22KT 18/04 A2982 RMK A01 T01780041  RH  041%=      5-min Rain = 0
KAMH 082315Z 25019G24KT 18/04 A2981 RMK A01 T01760041  RH  041%=      5-min Rain = 0
KAMH 082320Z 25018G24KT 17/04 A2981 RMK A01 T01740041  RH  042%=      5-min Rain = 0
KAMH 082325Z 26018G23KT 17/04 A2981 RMK A01 T01710042  RH  043%=      5-min Rain = 0
KAMH 082330Z 25018G23KT 17/04 A2981 RMK A01 T01710042  RH  043%=      5-min Rain = 0
KAMH 082335Z 25015KT 17/04 A2981 RMK A01 T01680042  RH  044%=      5-min Rain = 0
KAMH 082340Z 25016G21KT 17/04 A2982 RMK A01 T01670042  RH  044%=      5-min Rain = 0
KAMH 082345Z 25017G23KT 17/04 A2982 RMK A01 T01660043  RH  045%=      5-min Rain = 0
KAMH 082350Z 25019G24KT 17/04 A2982 RMK A01 T01660044  RH  045%=      5-min Rain = 0
KAMH 082355Z 26018KT 16/04 A2982 RMK A01 T01640044  RH  046%=      5-min Rain = 0
KAMH 090000Z 25017G23KT 16/05 A2982 RMK A01 T01640045  RH  046%=      5-min Rain = 0
KAMH 090005Z 25015G21KT 16/05 A2983 RMK A01 T01600045  RH  047%=      5-min Rain = 0
KAMH 090010Z 25014G19KT 16/05 A2983 RMK A01 T01580045  RH  048%=      5-min Rain = 0
KAMH 090015Z 25013KT 16/05 A2983 RMK A01 T01550046  RH  049%=      5-min Rain = 0
KAMH 090020Z 25013KT 15/05 A2983 RMK A01 T01530046  RH  050%=      5-min Rain = 0
KAMH 090025Z 26013KT 15/05 A2983 RMK A01 T01520046  RH  050%=      5-min Rain = 0
KAMH 090030Z 25014KT 15/05 A2983 RMK A01 T01510047  RH  051%=      5-min Rain = 0
KAMH 090035Z 26013KT 15/05 A2983 RMK A01 T01500046  RH  051%=      5-min Rain = 0
KAMH 090040Z 26014G19KT 15/05 A2983 RMK A01 T01480046  RH  052%=      5-min Rain = 0
KAMH 090045Z 26014KT 15/05 A2983 RMK A01 T01480047  RH  052%=      5-min Rain = 0
KAMH 090050Z 26014KT 15/05 A2984 RMK A01 T01480047  RH  052%=      5-min Rain = 0
KAMH 090055Z 26015KT 15/05 A2984 RMK A01 T01480047  RH  052%=      5-min Rain = 0
KAMH 090100Z 26015KT 15/05 A2984 RMK A01 T01470047  RH  052%=      5-min Rain = 0
KAMH 090105Z 26014KT 15/05 A2984 RMK A01 T01450048  RH  053%=      5-min Rain = 0
KAMH 090110Z 26014KT 14/05 A2985 RMK A01 T01430047  RH  054%=      5-min Rain = 0
KAMH 090115Z 26013KT 14/05 A2985 RMK A01 T01400047  RH  055%=      5-min Rain = 0
KAMH 090120Z 26012KT 14/05 A2985 RMK A01 T01370047  RH  056%=      5-min Rain = 0
KAMH 090125Z 26011KT 13/05 A2985 RMK A01 T01330046  RH  057%=      5-min Rain = 0
KAMH 090130Z 26012G19KT 13/05 A2986 RMK A01 T01320046  RH  057%=      5-min Rain = 0
KAMH 090135Z 26015KT 14/05 A2986 RMK A01 T01350046  RH  056%=      5-min Rain = 0
KAMH 090140Z 26014KT 14/05 A2986 RMK A01 T01350046  RH  056%=      5-min Rain = 0
KAMH 090145Z 26014G19KT 13/05 A2985 RMK A01 T01340045  RH  056%=      5-min Rain = 0
KAMH 090150Z 26012KT 13/05 A2985 RMK A01 T01320045  RH  057%=      5-min Rain = 0
KAMH 090155Z 25012G17KT 13/05 A2985 RMK A01 T01290045  RH  058%=      5-min Rain = 0
KAMH 090200Z 26012KT 13/05 A2985 RMK A01 T01280045  RH  058%=      5-min Rain = 0
KAMH 090205Z 26011G17KT 13/04 A2985 RMK A01 T01270044  RH  058%=      5-min Rain = 0
KAMH 090210Z 25009KT 12/04 A2984 RMK A01 T01240043  RH  059%=      5-min Rain = 0
KAMH 090215Z 26009KT 12/04 A2984 RMK A01 T01200043  RH  060%=      5-min Rain = 0
KAMH 090220Z 25009KT 12/04 A2984 RMK A01 T01190042  RH  061%=      5-min Rain = 0
KAMH 090225Z 25010KT 12/04 A2984 RMK A01 T01200042  RH  060%=      5-min Rain = 0
KAMH 090230Z 24010KT 12/04 A2984 RMK A01 T01210042  RH  060%=      5-min Rain = 0
KAMH 090235Z 24011KT 12/04 A2984 RMK A01 T01200042  RH  060%=      5-min Rain = 0
KAMH 090240Z 23011KT 12/04 A2984 RMK A01 T01180042  RH  061%=      5-min Rain = 0
KAMH 090245Z 23011KT 12/04 A2984 RMK A01 T01170041  RH  061%=      5-min Rain = 0
KAMH 090250Z 23011KT 12/04 A2984 RMK A01 T01170041  RH  061%=      5-min Rain = 0
KAMH 090255Z 23011KT 12/04 A2984 RMK A01 T01170040  RH  061%=      5-min Rain = 0
KAMH 090300Z 23011KT 12/04 A2984 RMK A01 T01150040  RH  061%=      5-min Rain = 0
KAMH 090305Z 23011KT 11/04 A2984 RMK A01 T01140040  RH  062%=      5-min Rain = 0
KAMH 090310Z 24010KT 11/04 A2985 RMK A01 T01120041  RH  062%=      5-min Rain = 0
KAMH 090315Z 23011KT 11/04 A2984 RMK A01 T01110041  RH  063%=      5-min Rain = 0
KAMH 090320Z 24010KT 11/04 A2984 RMK A01 T01090041  RH  064%=      5-min Rain = 0
KAMH 090325Z 24010KT 11/04 A2984 RMK A01 T01080042  RH  065%=      5-min Rain = 0
KAMH 090330Z 24010KT 11/04 A2984 RMK A01 T01060042  RH  066%=      5-min Rain = 0
KAMH 090335Z 24011KT 11/04 A2983 RMK A01 T01070042  RH  065%=      5-min Rain = 0
KAMH 090340Z 25012KT 11/04 A2983 RMK A01 T01080042  RH  065%=      5-min Rain = 0
KAMH 090345Z 26013KT 11/04 A2983 RMK A01 T01100041  RH  064%=      5-min Rain = 0
KAMH 090350Z 26014KT 11/04 A2983 RMK A01 T01100041  RH  064%=      5-min Rain = 0
KAMH 090355Z 26014KT 11/04 A2983 RMK A01 T01100040  RH  063%=      5-min Rain = 0
KAMH 090400Z 26016KT 12/04 A2983 RMK A01 T01150038  RH  061%=      5-min Rain = 0
KAMH 090405Z 26016KT 12/04 A2982 RMK A01 T01160037  RH  060%=      5-min Rain = 0
KAMH 090410Z 26015G20KT 12/04 A2982 RMK A01 T01150036  RH  059%=      5-min Rain = 0
KAMH 090415Z 26014KT 11/03 A2982 RMK A01 T01140034  RH  059%=      5-min Rain = 0
KAMH 090420Z 25014KT 12/03 A2982 RMK A01 T01150033  RH  058%=      5-min Rain = 0
KAMH 090425Z 25014KT 11/03 A2982 RMK A01 T01130032  RH  059%=      5-min Rain = 0
KAMH 090430Z 26016G21KT 11/03 A2982 RMK A01 T01110033  RH  059%=      5-min Rain = 0
KAMH 090435Z 26016KT 11/03 A2982 RMK A01 T01110032  RH  059%=      5-min Rain = 0
KAMH 090440Z 25015G20KT 11/03 A2982 RMK A01 T01100031  RH  059%=      5-min Rain = 0
KAMH 090445Z 26014KT 11/03 A2982 RMK A01 T01080031  RH  060%=      5-min Rain = 0
KAMH 090450Z 25013KT 11/03 A2982 RMK A01 T01070031  RH  060%=      5-min Rain = 0
KAMH 090455Z 25014G19KT 11/03 A2982 RMK A01 T01070030  RH  060%=      5-min Rain = 0
KAMH 090500Z 25015KT 11/03 A2982 RMK A01 T01100029  RH  058%=      5-min Rain = 0
KAMH 090505Z 25014G19KT 11/03 A2982 RMK A01 T01090028  RH  058%=      5-min Rain = 0
KAMH 090510Z 25014KT 11/03 A2981 RMK A01 T01080027  RH  058%=      5-min Rain = 0
KAMH 090515Z 25013G18KT 11/03 A2982 RMK A01 T01060027  RH  059%=      5-min Rain = 0
KAMH 090520Z 24013KT 11/03 A2982 RMK A01 T01050027  RH  059%=      5-min Rain = 0
KAMH 090525Z 23012KT 10/03 A2983 RMK A01 T01020027  RH  061%=      5-min Rain = 0
KAMH 090530Z 24011G18KT 10/03 A2983 RMK A01 T01000027  RH  061%=      5-min Rain = 0
KAMH 090535Z 23011KT 10/03 A2983 RMK A01 T00990027  RH  062%=      5-min Rain = 0
KAMH 090540Z 22010KT 10/03 A2983 RMK A01 T00950026  RH  063%=      5-min Rain = 0
KAMH 090545Z 23009KT 09/03 A2983 RMK A01 T00930026  RH  064%=      5-min Rain = 0
KAMH 090550Z 23009KT 09/03 A2983 RMK A01 T00930026  RH  064%=      5-min Rain = 0
KAMH 090555Z 24010KT 10/03 A2983 RMK A01 T00950026  RH  063%=      5-min Rain = 0

Page generated in 0.0097 seconds.